Time;durP1;ratioP1;P1;durP2;ratioP2;P2;SDS_P1;SDS_P2;PMS_P1;PMS_P2;Temp;Humidity;BMP_temperature;BMP_pressure;BME280_temperature;BME280_humidity;BME280_pressure;Samples;Min_cycle;Max_cycle;Signal;HPM_P1;HPM_P2
2023/05/22 06:44:05;;;;;;;34.17;27.90;;;17.80;99.90;;;;;;6182384;23;20024;-92
2023/05/22 06:51:11;;;;;;;;;;;;;;;;;;;;;
2023/05/22 06:54:29;;;;;;;;;;;;;;;;;;;;;
2023/05/22 06:57:24;;;;;;;;;;;;;;;;;;;;;
2023/05/22 07:04:00;;;;;;;;;;;;;;;;;;;;;
2023/05/22 07:06:57;;;;;;;;;;;;;;;;;;;;;
2023/05/22 07:09:38;;;;;;;;;;;;;;;;;;;;;
2023/05/22 07:12:29;;;;;;;;;;;;;;;;;;;;;
2023/05/22 07:15:03;;;;;;;32.47;26.48;;;18.30;99.90;;;;;;6220349;22;19888;-94
2023/05/22 07:24:02;;;;;;;31.45;26.05;;;18.50;99.90;;;;;;6176305;23;20058;-93
2023/05/22 07:27:04;;;;;;;34.63;28.00;;;18.60;99.90;;;;;;6171332;23;20012;-95
2023/05/22 07:32:55;;;;;;;30.23;24.90;;;18.70;99.90;;;;;;6219083;23;20088;-96
2023/05/22 07:35:50;;;;;;;;;;;;;;;;;;;;;
2023/05/22 07:38:32;;;;;;;35.97;28.42;;;18.80;99.90;;;;;;6218598;23;20080;-94
2023/05/22 07:41:41;;;;;;;;;;;;;;;;;;;;;
2023/05/22 07:44:32;;;;;;;;;;;;;;;;;;;;;
2023/05/22 07:47:04;;;;;;;;;;;19.00;99.90;;;;;;6197395;23;20092;-95
2023/05/22 07:50:05;;;;;;;;;;;;;;;;;;;;;
2023/05/22 07:53:11;;;;;;;36.40;28.30;;;19.10;99.90;;;;;;6188319;23;20079;-93
2023/05/22 08:02:20;;;;;;;;;;;;;;;;;;;;;
2023/05/22 08:05:47;;;;;;;;;;;;;;;;;;;;;
2023/05/22 08:09:02;;;;;;;;;;;;;;;;;;;;;
2023/05/22 08:12:15;;;;;;;27.35;22.77;;;19.40;99.90;;;;;;6221558;23;20067;-94
2023/05/22 08:22:01;;;;;;;;;;;;;;;;;;;;;
2023/05/22 08:56:38;;;;;;;;;;;;;;;;;;;;;
2023/05/22 09:02:48;;;;;;;26.25;21.55;;;20.50;99.90;;;;;;6221433;23;20004;-93
2023/05/22 09:09:26;;;;;;;;;;;;;;;;;;;;;
2023/05/22 09:12:18;;;;;;;30.45;24.83;;;20.60;99.90;;;;;;6221488;23;20033;-94
2023/05/22 09:15:21;;;;;;;;;;;;;;;;;;;;;
2023/05/22 09:18:31;;;;;;;;;;;;;;;;;;;;;
2023/05/22 09:25:04;;;;;;;;;;;;;;;;;;;;;
2023/05/22 09:28:08;;;;;;;;;;;;;;;;;;;;;
2023/05/22 09:41:05;;;;;;;;;;;;;;;;;;;;;
2023/05/22 09:54:59;;;;;;;;;;;;;;;;;;;;;
2023/05/22 09:58:04;;;;;;;31.17;22.63;;;21.50;99.90;;;;;;6037404;23;19999;-95
2023/05/22 10:01:08;;;;;;;;;;;;;;;;;;;;;
2023/05/22 10:46:31;;;;;;;27.27;23.30;;;22.40;99.90;;;;;;6043409;23;20023;-92
2023/05/22 13:17:01;;;;;;;;;;;;;;;;;;;;;
2023/05/22 13:19:33;;;;;;;22.98;17.88;;;24.90;99.90;;;;;;6173558;23;20395;-89
2023/05/22 13:21:58;;;;;;;22.75;19.20;;;25.00;99.90;;;;;;6193733;23;20088;-89
2023/05/22 13:24:24;;;;;;;24.33;21.20;;;25.00;99.90;;;;;;6169116;23;20005;-90
2023/05/22 13:26:59;;;;;;;28.08;20.15;;;25.00;99.90;;;;;;6193268;23;20436;-94
2023/05/22 13:29:24;;;;;;;22.65;18.98;;;25.00;99.90;;;;;;6224200;23;20009;-94
2023/05/22 13:31:53;;;;;;;24.65;19.17;;;25.00;99.90;;;;;;6227955;23;20072;-94
2023/05/22 13:34:21;;;;;;;21.17;16.73;;;25.10;99.90;;;;;;6212044;23;20001;-90
2023/05/22 13:36:54;;;;;;;19.13;16.90;;;25.20;99.90;;;;;;6216892;23;20022;-91
2023/05/22 13:39:22;;;;;;;19.85;17.48;;;25.20;99.90;;;;;;6213221;23;20110;-90
2023/05/22 13:41:52;;;;;;;21.23;17.70;;;25.30;99.90;;;;;;6171740;23;20068;-92
2023/05/22 13:44:20;;;;;;;22.48;18.23;;;25.40;99.90;;;;;;6195379;23;20005;-91
2023/05/22 13:46:49;;;;;;;21.63;17.92;;;25.40;99.90;;;;;;6172974;23;20014;-93
2023/05/22 13:49:15;;;;;;;22.35;18.90;;;25.50;99.90;;;;;;6174177;23;20005;-91
2023/05/22 13:51:40;;;;;;;23.20;18.13;;;25.50;99.90;;;;;;6199466;23;20007;-93
2023/05/22 13:54:26;;;;;;;21.17;16.67;;;25.50;99.90;;;;;;6192775;23;20131;-92
2023/05/22 13:57:01;;;;;;;21.38;16.75;;;25.50;99.90;;;;;;6193878;23;20008;-94
2023/05/22 14:45:06;;;;;;;;;;;;;;;;;;;;;
2023/05/22 14:48:11;;;;;;;15.23;10.30;;;25.10;99.90;;;;;;5977815;24;20016;-90
2023/05/22 14:54:56;;;;;;;;;;;;;;;;;;;;;
2023/05/22 15:25:56;;;;;;;;;;;;;;;;;;;;;
2023/05/22 15:46:17;;;;;;;;;;;;;;;;;;;;;
2023/05/22 16:22:55;;;;;;;6.53;4.13;;;25.70;99.90;;;;;;5740955;24;20012;-82
2023/05/22 16:25:21;;;;;;;6.85;4.00;;;25.80;99.90;;;;;;5889610;24;20031;-83
2023/05/22 16:27:47;;;;;;;5.30;3.72;;;25.80;99.90;;;;;;5929274;23;20027;-83
2023/05/22 16:30:15;;;;;;;5.68;3.72;;;25.90;99.90;;;;;;6119306;23;20011;-82
2023/05/22 16:32:41;;;;;;;8.10;4.35;;;25.90;99.90;;;;;;6137161;23;20322;-85
2023/05/22 16:35:08;;;;;;;7.25;3.95;;;25.90;99.90;;;;;;6112117;23;20004;-83
2023/05/22 16:37:35;;;;;;;7.43;3.92;;;26.00;99.90;;;;;;6135841;23;20385;-82
2023/05/22 16:40:00;;;;;;;5.78;4.00;;;26.00;99.90;;;;;;6038013;23;20014;-82
2023/05/22 16:42:26;;;;;;;5.47;3.50;;;26.10;99.90;;;;;;6087862;23;20011;-82
2023/05/22 16:44:52;;;;;;;5.88;3.38;;;26.10;99.90;;;;;;6137561;23;20081;-82
2023/05/22 16:47:17;;;;;;;5.43;2.90;;;26.20;99.90;;;;;;6135707;23;20386;-82
2023/05/22 16:49:43;;;;;;;6.10;2.90;;;26.20;99.90;;;;;;6110417;23;20015;-82
2023/05/22 16:52:09;;;;;;;7.65;3.40;;;26.20;99.90;;;;;;6111384;23;20087;-81
2023/05/22 16:54:35;;;;;;;3.97;2.90;;;26.20;99.90;;;;;;6135080;23;20007;-82
2023/05/22 16:57:02;;;;;;;5.30;3.20;;;26.20;99.90;;;;;;6111537;23;20022;-84
2023/05/22 16:59:28;;;;;;;4.28;3.00;;;26.20;99.90;;;;;;6134673;23;20087;-85
2023/05/22 17:01:54;;;;;;;3.20;2.28;;;26.30;99.90;;;;;;6112213;23;20341;-85
2023/05/22 17:04:19;;;;;;;5.68;3.13;;;26.30;99.90;;;;;;6036726;23;20452;-85
2023/05/22 17:06:46;;;;;;;5.57;2.80;;;26.20;99.90;;;;;;6136318;23;20022;-84
2023/05/22 17:09:12;;;;;;;4.10;2.53;;;26.30;99.90;;;;;;6136309;23;20086;-85
2023/05/22 17:11:38;;;;;;;4.88;2.75;;;26.20;99.90;;;;;;6111877;23;20031;-84
2023/05/22 17:14:04;;;;;;;4.10;2.70;;;26.20;99.90;;;;;;6117941;23;20004;-84
2023/05/22 17:16:30;;;;;;;4.25;2.53;;;26.20;99.90;;;;;;6059617;23;20019;-84
2023/05/22 17:18:55;;;;;;;4.95;2.83;;;26.10;99.90;;;;;;6075101;23;19999;-84
2023/05/22 17:21:22;;;;;;;3.63;2.60;;;26.10;99.90;;;;;;6072459;23;20013;-83
2023/05/22 17:23:48;;;;;;;5.65;2.63;;;26.10;99.90;;;;;;6069429;23;20375;-86
2023/05/22 17:26:14;;;;;;;5.35;2.90;;;26.00;99.90;;;;;;6064712;23;20010;-83
2023/05/22 17:28:40;;;;;;;4.15;2.78;;;25.90;99.90;;;;;;6016208;23;20430;-83
2023/05/22 17:31:06;;;;;;;3.63;2.53;;;25.90;99.90;;;;;;6016633;23;20007;-83
2023/05/22 17:33:32;;;;;;;4.38;2.97;;;25.80;99.90;;;;;;6064945;23;20030;-82
2023/05/22 17:57:35;;;;;;;5.00;2.78;;;24.80;99.90;;;;;;6118292;23;20025;-82
2023/05/22 18:00:01;;;;;;;3.95;2.90;;;24.70;99.90;;;;;;6111353;23;20005;-83
2023/05/22 18:02:28;;;;;;;5.22;3.15;;;24.60;99.90;;;;;;6136344;23;20009;-84
2023/05/22 18:04:53;;;;;;;5.97;2.80;;;24.60;99.90;;;;;;6132232;23;20059;-83
2023/05/22 18:07:19;;;;;;;6.45;3.15;;;24.50;99.90;;;;;;6134518;23;20021;-83
2023/05/22 18:09:45;;;;;;;5.25;3.05;;;24.40;99.90;;;;;;6110248;23;20012;-82
2023/05/22 18:12:10;;;;;;;5.93;3.55;;;24.30;99.90;;;;;;6186537;23;20005;-82
2023/05/22 18:14:36;;;;;;;3.92;2.90;;;24.30;99.90;;;;;;6160098;23;20331;-82
2023/05/22 18:17:03;;;;;;;5.45;3.28;;;24.20;99.90;;;;;;6194507;23;19989;-82
2023/05/22 18:19:29;;;;;;;4.88;3.25;;;24.20;99.90;;;;;;6187679;23;19981;-81
2023/05/22 18:21:55;;;;;;;6.32;3.10;;;24.10;99.90;;;;;;6162523;23;20011;-82
2023/05/22 18:24:23;;;;;;;3.83;2.90;;;24.10;99.90;;;;;;6155252;23;20001;-82
2023/05/22 18:26:49;;;;;;;9.25;3.60;;;24.00;99.90;;;;;;6186325;23;20104;-83
2023/05/22 18:29:16;;;;;;;4.38;3.10;;;23.90;99.90;;;;;;6186417;23;20005;-85
2023/05/22 18:31:42;;;;;;;4.80;3.15;;;23.90;99.90;;;;;;6185478;23;20051;-83
2023/05/22 18:34:08;;;;;;;4.75;3.55;;;23.80;99.90;;;;;;6161098;23;20012;-83
2023/05/22 18:36:34;;;;;;;4.18;3.17;;;23.80;99.90;;;;;;6141086;23;20009;-83
2023/05/22 18:38:59;;;;;;;5.97;3.28;;;23.70;99.90;;;;;;6128865;23;20036;-83
2023/05/22 18:41:26;;;;;;;5.05;3.17;;;23.70;99.90;;;;;;6160073;23;19989;-83
2023/05/22 18:43:51;;;;;;;6.05;3.35;;;23.60;99.90;;;;;;6158659;23;20003;-83
2023/05/22 18:46:17;;;;;;;5.13;2.92;;;23.50;99.90;;;;;;6181907;23;20005;-83
2023/05/22 18:48:43;;;;;;;4.93;3.33;;;23.50;99.90;;;;;;6178105;23;20061;-82
2023/05/22 18:51:08;;;;;;;6.75;3.63;;;23.40;99.90;;;;;;6131531;23;20029;-82
2023/05/22 18:53:34;;;;;;;6.50;3.40;;;23.40;99.90;;;;;;6150969;23;20056;-82
2023/05/22 18:56:00;;;;;;;8.18;3.38;;;23.30;99.90;;;;;;6141698;23;20491;-83
2023/05/22 18:58:25;;;;;;;6.25;3.08;;;23.20;99.90;;;;;;6154906;23;20088;-82
2023/05/22 19:00:54;;;;;;;4.25;3.10;;;23.10;99.90;;;;;;6158366;23;20080;-82
2023/05/22 19:03:19;;;;;;;7.55;3.80;;;23.10;99.90;;;;;;6159413;23;20009;-82
2023/05/22 19:05:45;;;;;;;6.63;3.35;;;23.00;99.90;;;;;;6158082;23;20009;-81
2023/05/22 19:08:11;;;;;;;6.57;3.67;;;23.00;99.90;;;;;;6159046;23;20013;-81
2023/05/22 19:10:36;;;;;;;5.05;3.17;;;22.90;99.90;;;;;;6133544;23;20023;-82
2023/05/22 19:13:02;;;;;;;8.00;3.63;;;22.90;99.90;;;;;;6185121;23;20052;-82
2023/05/22 19:15:28;;;;;;;7.63;3.75;;;22.90;99.90;;;;;;6183579;23;20012;-82
2023/05/22 19:17:54;;;;;;;5.28;3.28;;;22.80;99.90;;;;;;6158595;23;20032;-81
2023/05/22 19:20:21;;;;;;;6.68;3.67;;;22.80;99.90;;;;;;6158374;23;20070;-82
2023/05/22 19:22:46;;;;;;;4.80;3.58;;;22.70;99.90;;;;;;6158565;23;20434;-83
2023/05/22 19:25:12;;;;;;;6.88;3.75;;;22.70;99.90;;;;;;6134000;23;20001;-82
2023/05/22 19:27:38;;;;;;;4.88;3.58;;;22.60;99.90;;;;;;6158498;23;20013;-82
2023/05/22 19:30:04;;;;;;;7.05;3.75;;;22.60;99.90;;;;;;6183699;23;20073;-85
